createdAt,value
2023-01-18T00:00:34.644Z,976.52
2023-01-18T00:01:36.215Z,976.46
2023-01-18T00:02:36.602Z,976.51
2023-01-18T00:03:37.280Z,976.50
2023-01-18T00:04:35.666Z,976.49
2023-01-18T00:05:36.110Z,976.44
2023-01-18T00:06:37.369Z,976.46
2023-01-18T00:07:38.884Z,976.48
2023-01-18T00:08:36.797Z,976.47
2023-01-18T00:09:38.090Z,976.49
2023-01-18T00:10:37.507Z,976.37
2023-01-18T00:11:37.904Z,976.34
2023-01-18T00:12:41.089Z,976.41
2023-01-18T00:13:39.490Z,976.30
2023-01-18T00:14:39.821Z,976.34
2023-01-18T00:15:41.874Z,976.31
2023-01-18T00:16:40.341Z,976.33
2023-01-18T00:17:42.205Z,976.29
2023-01-18T00:18:40.060Z,976.30
2023-01-18T00:19:41.394Z,976.31
2023-01-18T00:20:42.606Z,976.33
2023-01-18T00:21:41.056Z,976.28
2023-01-18T00:22:41.433Z,976.29
2023-01-18T00:23:41.684Z,976.32
2023-01-18T00:24:42.045Z,976.29
2023-01-18T00:25:42.416Z,976.33
2023-01-18T00:26:44.812Z,976.32
2023-01-18T00:27:45.203Z,976.26
2023-01-18T00:28:45.106Z,976.26
2023-01-18T00:29:44.012Z,976.31
2023-01-18T00:30:44.355Z,976.24
2023-01-18T00:31:44.788Z,976.28
2023-01-18T00:32:46.176Z,976.32
2023-01-18T00:33:47.627Z,976.35
2023-01-18T00:34:45.900Z,976.33
2023-01-18T00:35:48.124Z,976.30
2023-01-18T00:36:47.694Z,976.28
2023-01-18T00:37:47.591Z,976.31
2023-01-18T00:38:47.015Z,976.29
2023-01-18T00:39:47.395Z,976.31
2023-01-18T00:40:47.784Z,976.27
2023-01-18T00:41:50.217Z,976.30
2023-01-18T00:42:48.487Z,976.27
2023-01-18T00:43:48.745Z,976.28
2023-01-18T00:44:49.203Z,976.27
2023-01-18T00:45:49.692Z,976.32
2023-01-18T00:46:50.565Z,976.30
2023-01-18T00:47:49.952Z,976.35
2023-01-18T00:48:50.325Z,976.25
2023-01-18T00:49:50.653Z,976.31
2023-01-18T00:50:51.848Z,976.33
2023-01-18T00:51:51.187Z,976.33
2023-01-18T00:52:51.635Z,976.29
2023-01-18T00:53:52.045Z,976.29
2023-01-18T00:54:52.374Z,976.30
2023-01-18T00:55:52.852Z,976.28
2023-01-18T00:56:54.144Z,976.25
2023-01-18T00:57:56.261Z,976.24
2023-01-18T00:58:53.647Z,976.27
2023-01-18T00:59:53.966Z,976.27
2023-01-18T01:00:56.356Z,976.25
2023-01-18T01:01:55.004Z,976.31
2023-01-18T01:02:57.386Z,976.31
2023-01-18T01:03:55.584Z,976.30
2023-01-18T01:04:55.869Z,976.33
2023-01-18T01:05:56.288Z,976.38
2023-01-18T01:06:57.632Z,976.35
2023-01-18T01:07:56.918Z,976.31
2023-01-18T01:08:59.363Z,976.37
2023-01-18T01:09:57.592Z,976.37
2023-01-18T01:10:57.984Z,976.31
2023-01-18T01:11:58.373Z,976.34
2023-01-18T01:12:59.218Z,976.34
2023-01-18T01:13:58.749Z,976.25
2023-01-18T01:14:59.047Z,976.29
2023-01-18T01:15:59.583Z,976.29
2023-01-18T01:16:59.450Z,976.28
2023-01-18T01:18:00.495Z,976.25
2023-01-18T01:19:00.794Z,976.29
2023-01-18T01:20:01.123Z,976.24
2023-01-18T01:21:27.632Z,976.31
2023-01-18T01:22:26.124Z,976.27
2023-01-18T01:23:26.042Z,976.34
2023-01-18T01:24:26.399Z,976.30
2023-01-18T01:25:26.756Z,976.35
2023-01-18T01:26:29.074Z,976.39
2023-01-18T01:27:27.504Z,976.38
2023-01-18T01:28:28.766Z,976.40
2023-01-18T01:29:29.043Z,976.43
2023-01-18T01:30:28.569Z,976.43
2023-01-18T01:31:28.603Z,976.39
2023-01-18T01:32:28.395Z,976.36
2023-01-18T01:33:28.810Z,976.34
2023-01-18T01:34:29.150Z,976.37
2023-01-18T01:35:30.334Z,976.34
2023-01-18T01:36:29.650Z,976.36
2023-01-18T01:37:31.919Z,976.41
2023-01-18T01:38:30.241Z,976.45
2023-01-18T01:39:30.553Z,976.47
2023-01-18T01:40:30.904Z,976.48
2023-01-18T01:41:31.260Z,976.46
2023-01-18T01:42:32.587Z,976.49
2023-01-18T01:43:31.870Z,976.48
2023-01-18T01:44:33.302Z,976.44
2023-01-18T01:45:32.664Z,976.46
2023-01-18T01:46:32.989Z,976.44
2023-01-18T01:47:34.164Z,976.42
2023-01-18T01:48:33.482Z,976.47
2023-01-18T01:49:34.771Z,976.50
2023-01-18T01:50:34.123Z,976.54
2023-01-18T01:51:34.442Z,976.56
2023-01-18T01:52:35.694Z,976.58
2023-01-18T01:53:34.981Z,976.60
2023-01-18T01:54:35.275Z,976.58
2023-01-18T01:55:36.510Z,976.60
2023-01-18T01:56:35.947Z,976.55
2023-01-18T01:57:37.301Z,976.57
2023-01-18T01:58:38.683Z,976.64
2023-01-18T01:59:37.919Z,976.56
2023-01-18T02:00:39.146Z,976.62
2023-01-18T02:01:37.735Z,976.61
2023-01-18T02:02:37.680Z,976.61
2023-01-18T02:03:38.061Z,976.62
2023-01-18T02:04:38.402Z,976.64
2023-01-18T02:05:38.828Z,976.66
2023-01-18T02:06:40.127Z,976.65
2023-01-18T02:07:41.431Z,976.61
2023-01-18T02:08:39.989Z,976.66
2023-01-18T02:09:39.751Z,976.69
2023-01-18T02:10:41.076Z,976.69
2023-01-18T02:11:40.402Z,976.69
2023-01-18T02:12:40.825Z,976.75
2023-01-18T02:13:41.158Z,976.71
2023-01-18T02:14:41.492Z,976.71
2023-01-18T02:15:41.755Z,976.80
2023-01-18T02:16:43.182Z,976.75
2023-01-18T02:17:43.391Z,976.76
2023-01-18T02:18:42.630Z,976.73
2023-01-18T02:19:42.851Z,976.76
2023-01-18T02:20:44.094Z,976.75
2023-01-18T02:21:43.385Z,976.74
2023-01-18T02:22:43.634Z,976.78
2023-01-18T02:23:43.974Z,976.79
2023-01-18T02:24:44.353Z,976.84
2023-01-18T02:25:44.599Z,976.85
2023-01-18T02:26:46.881Z,976.87
2023-01-18T02:27:45.088Z,976.88
2023-01-18T02:28:45.336Z,976.90
2023-01-18T02:29:46.425Z,976.85
2023-01-18T02:30:45.671Z,976.87
2023-01-18T02:31:46.393Z,976.87
2023-01-18T02:32:47.151Z,976.89
2023-01-18T02:33:47.084Z,976.86
2023-01-18T02:34:48.602Z,976.92
2023-01-18T02:35:46.947Z,976.88
2023-01-18T02:36:47.252Z,976.97
2023-01-18T02:37:47.572Z,976.98
2023-01-18T02:38:48.806Z,976.95
2023-01-18T02:39:49.006Z,976.97
2023-01-18T02:40:48.278Z,976.96
2023-01-18T02:41:48.551Z,976.99
2023-01-18T02:42:48.843Z,976.94
2023-01-18T02:43:49.051Z,977.00
2023-01-18T02:44:49.309Z,976.98
2023-01-18T02:45:49.606Z,976.97
2023-01-18T02:46:49.838Z,976.96
2023-01-18T02:47:50.323Z,976.98
2023-01-18T02:48:50.043Z,976.95
2023-01-18T02:49:52.226Z,976.99
2023-01-18T02:50:50.481Z,977.01
2023-01-18T02:51:50.726Z,977.06
2023-01-18T02:52:51.011Z,976.98
2023-01-18T02:53:51.261Z,977.02
2023-01-18T02:54:51.551Z,976.95
2023-01-18T02:55:51.750Z,976.98
2023-01-18T02:56:51.961Z,976.95
2023-01-18T02:57:53.192Z,976.93
2023-01-18T02:58:52.502Z,976.95
2023-01-18T02:59:54.734Z,976.96
2023-01-18T03:00:53.121Z,976.92
2023-01-18T03:01:53.466Z,976.96
2023-01-18T03:02:53.852Z,976.95
2023-01-18T03:03:54.180Z,976.98
2023-01-18T03:04:54.624Z,977.02
2023-01-18T03:05:54.344Z,977.00
2023-01-18T03:06:55.562Z,977.05
2023-01-18T03:07:54.798Z,977.02
2023-01-18T03:08:56.671Z,977.05
2023-01-18T03:09:56.465Z,977.03
2023-01-18T03:10:55.718Z,977.08
2023-01-18T03:11:56.019Z,977.11
2023-01-18T03:12:57.518Z,977.09
2023-01-18T03:13:56.593Z,977.07
2023-01-18T03:14:57.824Z,977.07
2023-01-18T03:15:57.120Z,977.12
2023-01-18T03:16:57.389Z,977.12
2023-01-18T03:17:57.640Z,977.10
2023-01-18T03:18:57.942Z,977.08
2023-01-18T03:19:58.142Z,977.09
2023-01-18T03:20:58.455Z,977.13
2023-01-18T03:21:59.662Z,977.11
2023-01-18T03:23:01.147Z,977.14
2023-01-18T03:23:59.129Z,977.15
2023-01-18T03:25:02.344Z,977.19
2023-01-18T03:25:59.579Z,977.20
2023-01-18T03:27:01.876Z,977.22
2023-01-18T03:28:01.122Z,977.17
2023-01-18T03:29:00.385Z,977.18
2023-01-18T03:30:01.620Z,977.17
2023-01-18T03:31:00.929Z,977.24
2023-01-18T03:32:01.265Z,977.24
2023-01-18T03:33:01.569Z,977.23
2023-01-18T03:34:02.797Z,977.24
2023-01-18T03:35:02.999Z,977.26
2023-01-18T03:36:02.240Z,977.23
2023-01-18T03:37:02.535Z,977.28
2023-01-18T03:38:03.074Z,977.26
2023-01-18T03:39:02.927Z,977.36
2023-01-18T03:40:03.242Z,977.33
2023-01-18T03:41:04.479Z,977.35
2023-01-18T03:42:05.174Z,977.36
2023-01-18T03:43:03.927Z,977.39
2023-01-18T03:44:04.176Z,977.39
2023-01-18T03:45:05.357Z,977.45
2023-01-18T03:46:05.511Z,977.47
2023-01-18T03:47:05.691Z,977.45
2023-01-18T03:48:06.480Z,977.52
2023-01-18T03:49:05.329Z,977.49
2023-01-18T03:50:06.541Z,977.53
2023-01-18T03:51:06.825Z,977.53
2023-01-18T03:52:07.106Z,977.56
2023-01-18T03:53:07.154Z,977.48
2023-01-18T03:54:07.451Z,977.52
2023-01-18T03:55:07.899Z,977.54
2023-01-18T03:56:08.270Z,977.58
2023-01-18T03:57:08.463Z,977.54
2023-01-18T03:58:08.733Z,977.58
2023-01-18T03:59:08.865Z,977.56
2023-01-18T04:00:09.053Z,977.56
2023-01-18T04:01:10.236Z,977.55
2023-01-18T04:02:09.389Z,977.60
2023-01-18T04:03:09.684Z,977.57
2023-01-18T04:04:09.968Z,977.58
2023-01-18T04:05:10.222Z,977.63
2023-01-18T04:06:10.470Z,977.61
2023-01-18T04:07:10.670Z,977.63
2023-01-18T04:08:10.000Z,977.60
2023-01-18T04:09:11.297Z,977.65
2023-01-18T04:10:11.496Z,977.65
2023-01-18T04:11:13.121Z,977.66
2023-01-18T04:12:12.455Z,977.67
2023-01-18T04:13:11.260Z,977.67
2023-01-18T04:14:11.514Z,977.70
2023-01-18T04:15:12.738Z,977.66
2023-01-18T04:16:12.110Z,977.68
2023-01-18T04:17:12.364Z,977.65
2023-01-18T04:18:12.689Z,977.64
2023-01-18T04:19:13.926Z,977.61
2023-01-18T04:20:14.153Z,977.67
2023-01-18T04:21:15.439Z,977.70
2023-01-18T04:22:14.712Z,977.68
2023-01-18T04:23:16.082Z,977.70
2023-01-18T04:24:14.301Z,977.73
2023-01-18T04:25:16.569Z,977.79
2023-01-18T04:26:16.773Z,977.74
2023-01-18T04:27:15.140Z,977.80
2023-01-18T04:28:16.198Z,977.80
2023-01-18T04:29:15.440Z,977.72
2023-01-18T04:30:17.752Z,977.78
2023-01-18T04:31:16.069Z,977.75
2023-01-18T04:32:16.331Z,977.73
2023-01-18T04:33:16.655Z,977.79
2023-01-18T04:34:16.936Z,977.71
2023-01-18T04:35:17.351Z,977.74
2023-01-18T04:36:18.369Z,977.71
2023-01-18T04:37:19.109Z,977.77
2023-01-18T04:38:18.010Z,977.75
2023-01-18T04:39:18.247Z,977.77
2023-01-18T04:40:18.518Z,977.74
2023-01-18T04:41:18.753Z,977.84
2023-01-18T04:42:18.968Z,977.85
2023-01-18T04:43:20.204Z,977.79
2023-01-18T04:44:19.491Z,977.86
2023-01-18T04:45:19.891Z,977.83
2023-01-18T04:46:20.210Z,977.85
2023-01-18T04:47:20.621Z,977.87
2023-01-18T04:48:21.826Z,977.95
2023-01-18T04:49:21.068Z,977.96
2023-01-18T04:50:22.450Z,977.92
2023-01-18T04:51:21.704Z,977.98
2023-01-18T04:52:21.948Z,977.97
2023-01-18T04:53:24.209Z,977.96
2023-01-18T04:54:22.489Z,977.95
2023-01-18T04:55:22.801Z,978.00
2023-01-18T04:56:25.119Z,977.95
2023-01-18T04:57:23.377Z,977.99
2023-01-18T04:58:23.612Z,977.94
2023-01-18T04:59:25.869Z,978.00
2023-01-18T05:00:24.147Z,978.05
2023-01-18T05:01:25.426Z,977.99
2023-01-18T05:02:24.847Z,977.99
2023-01-18T05:03:25.092Z,978.03
2023-01-18T05:04:25.360Z,978.07
2023-01-18T05:05:27.216Z,978.07
2023-01-18T05:06:25.959Z,978.10
2023-01-18T05:07:27.238Z,978.09
2023-01-18T05:08:26.529Z,978.10
2023-01-18T05:09:26.766Z,978.16
2023-01-18T05:10:29.010Z,978.16
2023-01-18T05:11:27.258Z,978.16
2023-01-18T05:12:27.497Z,978.14
2023-01-18T05:13:27.777Z,978.16
2023-01-18T05:14:28.998Z,978.16
2023-01-18T05:15:28.308Z,978.18
2023-01-18T05:16:28.687Z,978.19
2023-01-18T05:17:30.929Z,978.20
2023-01-18T05:18:30.198Z,978.22
2023-01-18T05:19:29.422Z,978.20
2023-01-18T05:20:29.717Z,978.23
2023-01-18T05:21:29.962Z,978.22
2023-01-18T05:22:30.207Z,978.19
2023-01-18T05:23:31.425Z,978.25
2023-01-18T05:24:30.736Z,978.26
2023-01-18T05:25:31.233Z,978.21
2023-01-18T05:26:31.057Z,978.27
2023-01-18T05:27:33.921Z,978.24
2023-01-18T05:28:31.721Z,978.28
2023-01-18T05:29:32.089Z,978.25
2023-01-18T05:30:34.506Z,978.28
2023-01-18T05:31:32.826Z,978.30
2023-01-18T05:32:33.160Z,978.33
2023-01-18T05:33:33.460Z,978.30
2023-01-18T05:34:33.715Z,978.36
2023-01-18T05:35:34.184Z,978.32
2023-01-18T05:36:34.019Z,978.32
2023-01-18T05:37:35.268Z,978.31
2023-01-18T05:38:34.580Z,978.34
2023-01-18T05:39:34.914Z,978.37
2023-01-18T05:40:35.253Z,978.34
2023-01-18T05:41:35.486Z,978.36
2023-01-18T05:42:35.815Z,978.39
2023-01-18T05:43:36.112Z,978.36
2023-01-18T05:44:38.379Z,978.36
2023-01-18T05:45:41.205Z,978.40
2023-01-18T05:46:38.922Z,978.38
2023-01-18T05:47:37.422Z,978.37
2023-01-18T05:48:37.808Z,978.39
2023-01-18T05:49:41.695Z,978.41
2023-01-18T05:50:38.167Z,978.41
2023-01-18T05:51:40.465Z,978.46
2023-01-18T05:52:38.714Z,978.49
2023-01-18T05:53:40.043Z,978.48
2023-01-18T05:54:40.760Z,978.50
2023-01-18T05:55:42.498Z,978.53
2023-01-18T05:56:40.755Z,978.56
2023-01-18T05:57:40.163Z,978.62
2023-01-18T05:58:41.487Z,978.63
2023-01-18T05:59:41.696Z,978.67
2023-01-18T06:00:42.407Z,978.68
2023-01-18T06:01:41.372Z,978.76
2023-01-18T06:02:41.626Z,978.64
2023-01-18T06:03:41.868Z,978.75
2023-01-18T06:04:42.140Z,978.71
2023-01-18T06:05:42.407Z,978.69
2023-01-18T06:06:44.694Z,978.74
2023-01-18T06:07:44.971Z,978.76
2023-01-18T06:08:44.258Z,978.73
2023-01-18T06:09:43.501Z,978.75
2023-01-18T06:10:44.771Z,978.76
2023-01-18T06:11:45.107Z,978.81
2023-01-18T06:12:44.418Z,978.81
2023-01-18T06:13:45.645Z,978.83
2023-01-18T06:14:46.919Z,978.84
2023-01-18T06:15:45.181Z,978.79
2023-01-18T06:16:45.591Z,978.85
2023-01-18T06:17:45.926Z,978.84
2023-01-18T06:18:47.747Z,978.85
2023-01-18T06:19:46.535Z,978.87
2023-01-18T06:20:47.015Z,978.86
2023-01-18T06:21:47.063Z,978.86
2023-01-18T06:22:47.828Z,978.89
2023-01-18T06:23:47.227Z,978.90
2023-01-18T06:24:47.514Z,978.87
2023-01-18T06:25:47.682Z,978.89
2023-01-18T06:26:47.986Z,978.90
2023-01-18T06:27:48.311Z,978.87
2023-01-18T06:28:49.866Z,978.85
2023-01-18T06:29:50.095Z,978.90
2023-01-18T06:30:50.637Z,978.86
2023-01-18T06:31:50.410Z,978.88
2023-01-18T06:32:49.981Z,978.85
2023-01-18T06:33:50.685Z,978.90
2023-01-18T06:34:50.090Z,978.91
2023-01-18T06:35:51.375Z,978.90
2023-01-18T06:36:51.677Z,978.87
2023-01-18T06:37:51.016Z,978.91
2023-01-18T06:38:52.530Z,978.94
2023-01-18T06:39:52.200Z,978.92
2023-01-18T06:40:52.502Z,978.92
2023-01-18T06:41:51.795Z,978.91
2023-01-18T06:42:53.158Z,978.94
2023-01-18T06:43:52.937Z,978.95
2023-01-18T06:44:53.483Z,978.97
2023-01-18T06:45:53.103Z,979.00
2023-01-18T06:46:53.255Z,979.04
2023-01-18T06:47:54.303Z,979.02
2023-01-18T06:48:54.014Z,979.00
2023-01-18T06:49:54.009Z,979.06
2023-01-18T06:50:53.446Z,979.06
2023-01-18T06:51:54.668Z,979.10
2023-01-18T06:52:53.938Z,979.12
2023-01-18T06:53:55.156Z,979.13
2023-01-18T06:54:55.482Z,979.14
2023-01-18T06:55:54.861Z,979.14
2023-01-18T06:56:55.896Z,979.16
2023-01-18T06:57:55.236Z,979.16
2023-01-18T06:58:55.578Z,979.20
2023-01-18T06:59:55.893Z,979.23
2023-01-18T07:00:57.158Z,979.21
2023-01-18T07:01:57.423Z,979.26
2023-01-18T07:02:57.797Z,979.31
2023-01-18T07:03:56.867Z,979.33
2023-01-18T07:04:57.985Z,979.32
2023-01-18T07:05:57.438Z,979.34
2023-01-18T07:06:59.758Z,979.39
2023-01-18T07:07:59.019Z,979.41
2023-01-18T07:08:58.428Z,979.45
2023-01-18T07:09:59.235Z,979.42
2023-01-18T07:10:59.429Z,979.48
2023-01-18T07:11:58.857Z,979.50
2023-01-18T07:12:59.799Z,979.47
2023-01-18T07:13:59.377Z,979.51
2023-01-18T07:15:07.020Z,979.53
2023-01-18T07:16:01.107Z,979.54
2023-01-18T07:17:01.233Z,979.53
2023-01-18T07:18:00.274Z,979.54
2023-01-18T07:19:01.236Z,979.56
2023-01-18T07:20:01.345Z,979.61
2023-01-18T07:21:00.671Z,979.63
2023-01-18T07:22:01.334Z,979.61
2023-01-18T07:23:01.405Z,979.62
2023-01-18T07:24:03.218Z,979.64
2023-01-18T07:25:02.608Z,979.62
2023-01-18T07:26:02.297Z,979.70
2023-01-18T07:27:02.140Z,979.82
2023-01-18T07:28:03.250Z,979.78
2023-01-18T07:29:03.630Z,979.81
2023-01-18T07:30:04.437Z,979.86
2023-01-18T07:31:04.205Z,979.84
2023-01-18T07:32:03.645Z,979.86
2023-01-18T07:33:04.212Z,979.91
2023-01-18T07:34:05.691Z,979.90
2023-01-18T07:35:04.208Z,979.93
2023-01-18T07:36:04.133Z,979.90
2023-01-18T07:37:06.467Z,979.91
2023-01-18T07:38:05.558Z,979.93
2023-01-18T07:39:05.666Z,979.97
2023-01-18T07:40:05.798Z,980.02
2023-01-18T07:41:05.972Z,979.94
2023-01-18T07:42:06.340Z,980.02
2023-01-18T07:43:06.637Z,980.01
2023-01-18T07:44:09.327Z,980.04
2023-01-18T07:45:07.025Z,980.02
2023-01-18T07:46:07.118Z,980.02
2023-01-18T07:47:07.234Z,980.05
2023-01-18T07:48:07.577Z,980.05
2023-01-18T07:49:07.900Z,980.08
2023-01-18T07:50:07.945Z,980.06
2023-01-18T07:51:08.170Z,980.07
2023-01-18T07:52:08.552Z,980.12
2023-01-18T07:53:09.924Z,980.12
2023-01-18T07:54:09.823Z,980.11
2023-01-18T07:55:08.708Z,980.14
2023-01-18T07:56:09.552Z,980.21
2023-01-18T07:57:10.347Z,980.28
2023-01-18T07:58:12.979Z,980.27
2023-01-18T07:59:10.689Z,980.24
2023-01-18T08:00:10.052Z,980.29
2023-01-18T08:01:11.855Z,980.32
2023-01-18T08:02:11.765Z,980.31
2023-01-18T08:03:12.275Z,980.28
2023-01-18T08:04:11.381Z,980.31
2023-01-18T08:05:11.556Z,980.31
2023-01-18T08:06:12.138Z,980.33
2023-01-18T08:07:13.194Z,980.37
2023-01-18T08:08:12.418Z,980.37
2023-01-18T08:09:12.536Z,980.37
2023-01-18T08:10:13.631Z,980.44
2023-01-18T08:11:12.879Z,980.43
2023-01-18T08:12:15.155Z,980.47
2023-01-18T08:13:19.554Z,980.43
2023-01-18T08:14:18.509Z,980.47
2023-01-18T08:15:14.572Z,980.41
2023-01-18T08:16:13.921Z,980.45
2023-01-18T08:17:14.628Z,980.44
2023-01-18T08:18:14.576Z,980.44
2023-01-18T08:19:15.754Z,980.44
2023-01-18T08:20:19.263Z,980.46
2023-01-18T08:21:17.893Z,980.46
2023-01-18T08:22:17.938Z,980.48
2023-01-18T08:23:21.540Z,980.52
2023-01-18T08:24:18.366Z,980.47
2023-01-18T08:25:25.986Z,980.50
2023-01-18T08:26:17.375Z,980.52
2023-01-18T08:28:58.358Z,980.56
2023-01-18T08:29:57.540Z,980.53
2023-01-18T08:30:57.422Z,980.58
2023-01-18T08:31:58.335Z,980.53
2023-01-18T08:32:58.336Z,980.54
2023-01-18T08:33:58.396Z,980.59
2023-01-18T08:34:57.945Z,980.57
2023-01-18T08:35:57.885Z,980.62
2023-01-18T08:36:58.706Z,980.54
2023-01-18T08:37:59.011Z,980.53
2023-01-18T08:38:58.494Z,980.54
2023-01-18T08:39:59.028Z,980.69
2023-01-18T08:41:00.237Z,980.62
2023-01-18T08:41:59.973Z,980.64
2023-01-18T08:43:00.606Z,980.68
2023-01-18T08:43:59.851Z,980.70
2023-01-18T08:45:00.042Z,980.69
2023-01-18T08:46:00.340Z,980.73
2023-01-18T08:47:00.304Z,980.71
2023-01-18T08:48:00.906Z,980.71
2023-01-18T08:49:00.870Z,980.73
2023-01-18T08:50:02.020Z,980.81
2023-01-18T08:51:01.511Z,980.74
2023-01-18T08:52:01.477Z,980.75
2023-01-18T08:53:01.953Z,980.78
2023-01-18T08:54:03.852Z,980.75
2023-01-18T08:55:02.433Z,980.82
2023-01-18T08:56:02.567Z,980.80
2023-01-18T08:57:03.140Z,980.83
2023-01-18T08:58:02.791Z,980.88
2023-01-18T08:59:03.688Z,980.86
2023-01-18T09:00:03.785Z,980.99
2023-01-18T09:01:03.279Z,980.98
2023-01-18T09:02:04.062Z,980.96
2023-01-18T09:03:04.598Z,980.99
2023-01-18T09:04:03.840Z,980.98
2023-01-18T09:05:03.847Z,981.00
2023-01-18T09:06:05.816Z,981.05
2023-01-18T09:07:04.935Z,981.02
2023-01-18T09:08:05.248Z,981.04
2023-01-18T09:09:04.671Z,981.04
2023-01-18T09:10:05.047Z,981.06
2023-01-18T09:11:05.834Z,981.06
2023-01-18T09:12:05.318Z,981.05
2023-01-18T09:13:05.236Z,981.12
2023-01-18T09:14:05.654Z,981.09
2023-01-18T09:15:06.024Z,981.13
2023-01-18T09:16:07.523Z,981.13
2023-01-18T09:17:07.361Z,981.20
2023-01-18T09:18:06.668Z,981.18
2023-01-18T09:19:07.413Z,981.18
2023-01-18T09:20:06.878Z,981.16
2023-01-18T09:21:07.605Z,981.16
2023-01-18T09:22:07.426Z,981.24
2023-01-18T09:23:08.255Z,981.26
2023-01-18T09:24:08.815Z,981.24
2023-01-18T09:25:09.163Z,981.28
2023-01-18T09:26:08.638Z,981.28
2023-01-18T09:27:08.898Z,981.24
2023-01-18T09:28:08.902Z,981.31
2023-01-18T09:29:08.774Z,981.25
2023-01-18T09:30:09.327Z,981.28
2023-01-18T09:31:09.926Z,981.31
2023-01-18T09:32:09.620Z,981.32
2023-01-18T09:33:09.466Z,981.39
2023-01-18T09:34:18.941Z,981.40
2023-01-18T09:35:09.993Z,981.42
2023-01-18T09:36:10.104Z,981.34
2023-01-18T09:37:10.864Z,981.40
2023-01-18T09:38:11.054Z,981.40
2023-01-18T09:39:10.507Z,981.34
2023-01-18T09:40:10.394Z,981.37
2023-01-18T09:41:12.733Z,981.50
2023-01-18T09:42:11.044Z,981.42
2023-01-18T09:43:11.004Z,981.41
2023-01-18T09:44:12.226Z,981.40
2023-01-18T09:45:12.507Z,981.44
2023-01-18T09:46:12.121Z,981.49
2023-01-18T09:47:11.943Z,981.38
2023-01-18T09:48:13.045Z,981.51
2023-01-18T09:49:12.457Z,981.48
2023-01-18T09:50:13.896Z,981.49
2023-01-18T09:51:13.573Z,981.47
2023-01-18T09:52:14.212Z,981.52
2023-01-18T09:53:14.667Z,981.52
2023-01-18T09:54:15.039Z,981.48
2023-01-18T09:55:14.874Z,981.49
2023-01-18T09:56:15.246Z,981.51
2023-01-18T09:57:15.122Z,981.54
2023-01-18T09:58:14.432Z,981.52
2023-01-18T09:59:14.948Z,981.55
2023-01-18T10:00:16.161Z,981.49
2023-01-18T10:01:15.339Z,981.54
2023-01-18T10:02:15.544Z,981.57
2023-01-18T10:03:16.541Z,981.60
2023-01-18T10:04:16.339Z,981.59
2023-01-18T10:05:16.737Z,981.59
2023-01-18T10:06:16.702Z,981.56
2023-01-18T10:07:16.551Z,981.55
2023-01-18T10:08:17.461Z,981.58
2023-01-18T10:09:17.686Z,981.54
2023-01-18T10:10:18.112Z,981.61
2023-01-18T10:11:17.479Z,981.57
2023-01-18T10:12:18.569Z,981.58
2023-01-18T10:13:17.980Z,981.60
2023-01-18T10:14:19.153Z,981.58
2023-01-18T10:15:19.383Z,981.59
2023-01-18T10:16:19.445Z,981.59
2023-01-18T10:17:19.359Z,981.57
2023-01-18T10:18:18.826Z,981.59
2023-01-18T10:19:19.420Z,981.65
2023-01-18T10:20:19.768Z,981.62
2023-01-18T10:21:19.949Z,981.63
2023-01-18T10:22:21.034Z,981.64
2023-01-18T10:23:22.698Z,981.63
2023-01-18T10:24:22.035Z,981.65
2023-01-18T10:25:21.740Z,981.62
2023-01-18T10:26:20.976Z,981.59
2023-01-18T10:27:21.934Z,981.58
2023-01-18T10:28:21.972Z,981.63
2023-01-18T10:29:22.214Z,981.62
2023-01-18T10:30:21.626Z,981.61
2023-01-18T10:31:23.546Z,981.64
2023-01-18T10:32:22.496Z,981.60
2023-01-18T10:33:23.782Z,981.64
2023-01-18T10:34:24.490Z,981.63
2023-01-18T10:35:23.609Z,981.65
2023-01-18T10:36:23.595Z,981.62
2023-01-18T10:37:24.878Z,981.58
2023-01-18T10:38:25.446Z,981.64
2023-01-18T10:39:25.069Z,981.62
2023-01-18T10:40:25.223Z,981.64
2023-01-18T10:41:24.796Z,981.60
2023-01-18T10:42:24.864Z,981.54
2023-01-18T10:43:26.093Z,981.60
2023-01-18T10:44:25.651Z,981.62
2023-01-18T10:45:26.468Z,981.62
2023-01-18T10:46:26.805Z,981.61
2023-01-18T10:47:27.135Z,981.65
2023-01-18T10:48:27.238Z,981.74
2023-01-18T10:49:27.494Z,981.72
2023-01-18T10:50:27.597Z,981.71
2023-01-18T10:51:27.034Z,981.72
2023-01-18T10:52:27.672Z,981.71
2023-01-18T10:53:27.238Z,981.70
2023-01-18T10:54:27.620Z,981.71
2023-01-18T10:55:28.985Z,981.71
2023-01-18T10:56:29.442Z,981.72
2023-01-18T10:57:29.737Z,981.67
2023-01-18T10:58:29.266Z,981.64
2023-01-18T10:59:30.238Z,981.74
2023-01-18T11:00:30.487Z,981.71
2023-01-18T11:01:30.220Z,981.74
2023-01-18T11:02:30.307Z,981.76
2023-01-18T11:03:30.655Z,981.81
2023-01-18T11:04:31.816Z,981.80
2023-01-18T11:05:31.174Z,981.79
2023-01-18T11:06:31.768Z,981.78
2023-01-18T11:07:31.980Z,981.79
2023-01-18T11:08:32.106Z,981.78
2023-01-18T11:09:34.165Z,981.81
2023-01-18T11:10:33.475Z,981.84
2023-01-18T11:11:33.119Z,981.88
2023-01-18T11:12:32.495Z,981.90
2023-01-18T11:13:34.971Z,981.87
2023-01-18T11:14:33.706Z,981.90
2023-01-18T11:15:33.520Z,981.83
2023-01-18T11:16:33.512Z,981.87
2023-01-18T11:17:34.308Z,981.90
2023-01-18T11:18:33.657Z,981.89
2023-01-18T11:19:34.108Z,981.89
2023-01-18T11:20:34.478Z,981.90
2023-01-18T11:21:34.780Z,981.91
2023-01-18T11:22:34.802Z,981.80
2023-01-18T11:23:34.779Z,981.84
2023-01-18T11:24:34.738Z,981.84
2023-01-18T11:25:35.156Z,981.87
2023-01-18T11:26:35.618Z,981.92
2023-01-18T11:27:36.035Z,981.86
2023-01-18T11:28:36.426Z,981.85
2023-01-18T11:29:36.916Z,981.88
2023-01-18T11:30:36.804Z,981.92
2023-01-18T11:31:38.028Z,981.83
2023-01-18T11:32:38.918Z,981.84
2023-01-18T11:33:39.886Z,981.83
2023-01-18T11:34:38.480Z,981.86
2023-01-18T11:35:38.009Z,981.91
2023-01-18T11:36:38.464Z,981.90
2023-01-18T11:37:39.696Z,981.88
2023-01-18T11:38:39.855Z,981.84
2023-01-18T11:39:40.089Z,981.86
2023-01-18T11:40:39.490Z,981.90
2023-01-18T11:41:39.997Z,981.84
2023-01-18T11:42:40.805Z,981.84
2023-01-18T11:43:40.970Z,981.85
2023-01-18T11:44:40.433Z,981.81
2023-01-18T11:45:41.027Z,981.89
2023-01-18T11:46:41.082Z,981.83
2023-01-18T11:47:41.178Z,981.92
2023-01-18T11:48:41.334Z,981.89
2023-01-18T11:49:42.008Z,981.89
2023-01-18T11:50:41.899Z,981.90
2023-01-18T11:51:43.644Z,981.86
2023-01-18T11:52:42.216Z,981.89
2023-01-18T11:53:43.146Z,981.87
2023-01-18T11:54:44.038Z,981.84
2023-01-18T11:55:43.387Z,981.86
2023-01-18T11:56:44.727Z,981.88
2023-01-18T11:57:44.936Z,981.92
2023-01-18T11:58:43.477Z,981.87
2023-01-18T11:59:44.209Z,981.92
2023-01-18T12:00:44.486Z,981.93
2023-01-18T12:01:44.521Z,981.96
2023-01-18T12:02:43.985Z,981.99
2023-01-18T12:03:45.387Z,981.91
2023-01-18T12:04:44.499Z,981.94
2023-01-18T12:05:45.824Z,981.92
2023-01-18T12:06:45.186Z,981.95
2023-01-18T12:07:45.276Z,981.89
2023-01-18T12:08:45.676Z,981.88
2023-01-18T12:09:45.887Z,981.89
2023-01-18T12:10:46.015Z,981.87
2023-01-18T12:11:45.804Z,981.93
2023-01-18T12:12:46.570Z,981.91
2023-01-18T12:13:46.851Z,981.92
2023-01-18T12:14:48.341Z,981.91
2023-01-18T12:15:47.088Z,981.86
2023-01-18T12:16:47.417Z,981.93
2023-01-18T12:17:47.737Z,981.92
2023-01-18T12:18:47.977Z,981.93
2023-01-18T12:19:47.412Z,981.93
2023-01-18T12:20:48.803Z,981.95
2023-01-18T12:21:49.161Z,982.03
2023-01-18T12:22:48.687Z,981.97
2023-01-18T12:23:48.541Z,981.97
2023-01-18T12:24:49.123Z,982.00
2023-01-18T12:25:52.038Z,981.97
2023-01-18T12:26:50.074Z,981.99
2023-01-18T12:27:49.417Z,981.99
2023-01-18T12:28:50.436Z,981.99
2023-01-18T12:29:50.576Z,982.03
2023-01-18T12:30:50.854Z,982.06
2023-01-18T12:31:50.186Z,982.06
2023-01-18T12:32:51.634Z,982.09
2023-01-18T12:33:51.022Z,982.06